Gaziantep International Airport
LTAJ : now visible

Airfield :











YOU CAN JOIN US ON...

 
LOGIN :

Register | Disclaimer

   EN    FR    IT 

 









Legend :    VFR   Marginal VFR   IFR   Intensive IFR   Very Intensive IFR
Visi :
Ceiling :
>= 8 km
>= 3000ft
5 to 8 km
1000 to 3000 ft
1500m to 5 km
500 to 1000 ft
800 to 1500m
200 to 500 ft
< 800m
< 200 ft
Symbols :   Thunderstorms  Fog  Heavy snow  Heavy precipitations  Wind > 20 kt






- Airport Elevation : 2315 ft
- IATA code : GZT


LTAJ - Gaziantep International

CURRENT METAR :
  • 250550Z 35008KT 320V020 9999 FEW040 BKN100 15/05 Q1011 NOSIG

EXPIRED METARs :
  • 250520Z 35008KT 9999 FEW040 BKN100 15/05 Q1010 NOSIG RMK RWY10 01009KT 340V040
  • 250450Z 36006KT 9999 FEW040 SCT100 15/06 Q1010 NOSIG RMK RWY10 01008KT 340V050
  • 250420Z VRB01KT 9999 SCT040 BKN100 14/06 Q1009 NOSIG RMK RWY10 36004KT 330V040
  • 250350Z 33002KT 9999 SCT040 BKN100 13/05 Q1009 NOSIG RMK RWY10 32005KT
  • 250320Z 32006KT 9999 SCT040 BKN100 13/05 Q1009 NOSIG RMK RWY10 30006KT
  • 250250Z 34005KT 9999 SCT040 BKN100 13/06 Q1008 NOSIG RMK RWY10 34006KT

TAF TAF LTAJ
Valid from the 25 at 06:00 until the 26 at 06:00 UTC


250440Z 2506/2606 VRB02KT 9999 FEW040 SCT100
BECMG 2512/2514 28012KT CAVOK
BECMG 2516/2518 VRB02KT



MET'MAP, your aeronautical weather chart ! - Copyright ORBIFLY December 2007 - Disclaimer

ORBIFLY MET'MAP TEAM :

Programming & Development : Alexandra Zaïnal
Concept & original design : Baudouin d'Aumeries
Assistance for programming : Marc-Olivier Méhu
Technical & hardware support : Manuel Goepfert

Contact : metmap@orbifly.com




SOURCES & CREDITS :

   NOAA       Earth
Advisory